Time;durP1;ratioP1;P1;durP2;ratioP2;P2;SDS_P1;SDS_P2;PMS_P1;PMS_P2;Temp;Humidity;BMP_temperature;BMP_pressure;BME280_temperature;BME280_humidity;BME280_pressure;Samples;Min_cycle;Max_cycle;Signal;HPM_P1;HPM_P2
2023/10/25 00:01:12;;;;;;;2.20;2.10;;;;;;;;;;5023009;28;20231;-74
2023/10/25 00:03:40;;;;;;;1.90;1.80;;;;;;;;;;5035319;28;20232;-74
2023/10/25 00:06:07;;;;;;;2.13;2.00;;;;;;;;;;5041191;28;20202;-74
2023/10/25 00:08:35;;;;;;;2.10;1.83;;;;;;;;;;5034454;28;20541;-75
2023/10/25 00:11:03;;;;;;;2.27;2.07;;;;;;;;;;5035640;28;20558;-75
2023/10/25 00:13:30;;;;;;;3.27;2.00;;;;;;;;;;5027472;28;20260;-76
2023/10/25 00:15:58;;;;;;;2.50;2.40;;;;;;;;;;5029401;28;20282;-72
2023/10/25 00:18:28;;;;;;;3.43;3.13;;;;;;;;;;5038744;28;20450;-75
2023/10/25 00:20:56;;;;;;;3.40;3.10;;;;;;;;;;5032120;28;20337;-75
2023/10/25 00:23:23;;;;;;;3.07;2.87;;;;;;;;;;5032933;28;20587;-73
2023/10/25 00:25:51;;;;;;;4.43;2.70;;;;;;;;;;5051959;28;20202;-73
2023/10/25 00:28:18;;;;;;;2.77;2.57;;;;;;;;;;5006323;28;20714;-73
2023/10/25 00:30:46;;;;;;;3.00;2.80;;;;;;;;;;5032741;28;20235;-74
2023/10/25 00:33:13;;;;;;;3.30;3.00;;;;;;;;;;5041593;28;20659;-73
2023/10/25 00:35:41;;;;;;;3.30;3.00;;;;;;;;;;5045274;28;20206;-74
2023/10/25 00:38:09;;;;;;;4.70;3.10;;;;;;;;;;5031433;28;20230;-75
2023/10/25 00:40:37;;;;;;;4.70;3.00;;;;;;;;;;5021114;28;20229;-76
2023/10/25 00:43:17;;;;;;;3.07;2.87;;;;;;;;;;5010529;28;20203;-76
2023/10/25 00:45:54;;;;;;;2.60;2.50;;;;;;;;;;5029403;28;20229;-75
2023/10/25 00:48:21;;;;;;;3.07;2.87;;;;;;;;;;5030380;28;20720;-75
2023/10/25 00:50:48;;;;;;;3.10;2.80;;;;;;;;;;5026519;28;20240;-76
2023/10/25 00:53:16;;;;;;;3.10;2.80;;;;;;;;;;5003731;28;20218;-74
2023/10/25 00:55:43;;;;;;;3.00;2.80;;;;;;;;;;5029856;28;20203;-76
2023/10/25 00:58:10;;;;;;;2.97;2.77;;;;;;;;;;5027145;28;20217;-76
2023/10/25 01:00:38;;;;;;;3.53;2.90;;;;;;;;;;5024164;28;20717;-77
2023/10/25 01:03:08;;;;;;;3.07;2.87;;;;;;;;;;5028271;28;20210;-76
2023/10/25 01:05:36;;;;;;;2.80;2.60;;;;;;;;;;5027140;28;20217;-75
2023/10/25 01:08:04;;;;;;;2.87;2.70;;;;;;;;;;5027615;28;20233;-77
2023/10/25 01:10:31;;;;;;;3.00;2.80;;;;;;;;;;5024146;28;20223;-75
2023/10/25 01:12:58;;;;;;;2.70;2.50;;;;;;;;;;5030624;28;20647;-75
2023/10/25 01:15:26;;;;;;;2.37;2.23;;;;;;;;;;5025484;28;20211;-75
2023/10/25 01:17:53;;;;;;;3.10;2.90;;;;;;;;;;5028823;28;20227;-75
2023/10/25 01:20:20;;;;;;;2.77;2.57;;;;;;;;;;5032666;28;20318;-75
2023/10/25 01:22:48;;;;;;;2.97;2.77;;;;;;;;;;5023073;28;20206;-75
2023/10/25 01:25:16;;;;;;;3.00;2.80;;;;;;;;;;5039278;28;20302;-75
2023/10/25 01:27:44;;;;;;;3.03;2.83;;;;;;;;;;5040883;28;20241;-75
2023/10/25 01:30:11;;;;;;;3.20;3.00;;;;;;;;;;5031861;28;20575;-75
2023/10/25 01:32:39;;;;;;;3.27;2.90;;;;;;;;;;5035678;28;20703;-74
2023/10/25 01:35:07;;;;;;;3.37;3.17;;;;;;;;;;5007873;28;20253;-75
2023/10/25 01:37:35;;;;;;;3.67;3.37;;;;;;;;;;5027286;28;20207;-75
2023/10/25 01:40:06;;;;;;;3.27;3.07;;;;;;;;;;5037887;28;20229;-75
2023/10/25 01:42:33;;;;;;;3.40;3.17;;;;;;;;;;5024635;28;20207;-75
2023/10/25 01:45:01;;;;;;;3.43;3.23;;;;;;;;;;5030505;28;20289;-77
2023/10/25 01:47:28;;;;;;;3.40;3.20;;;;;;;;;;5024482;28;20234;-75
2023/10/25 01:49:55;;;;;;;3.37;3.17;;;;;;;;;;5021826;28;20705;-75
2023/10/25 01:52:23;;;;;;;5.53;3.20;;;;;;;;;;5027429;28;20801;-76
2023/10/25 01:54:50;;;;;;;3.20;3.00;;;;;;;;;;5031554;28;20221;-74
2023/10/25 01:57:18;;;;;;;3.60;3.20;;;;;;;;;;5035906;28;20582;-76
2023/10/25 01:59:45;;;;;;;28.47;3.80;;;;;;;;;;5033152;28;20231;-74
2023/10/25 02:02:13;;;;;;;23.90;3.23;;;;;;;;;;5026276;28;20203;-76
2023/10/25 02:04:40;;;;;;;6.23;2.90;;;;;;;;;;5019271;28;20240;-76
2023/10/25 02:07:07;;;;;;;11.93;3.33;;;;;;;;;;5026981;28;20593;-74
2023/10/25 02:09:35;;;;;;;32.83;3.53;;;;;;;;;;5029387;28;20564;-77
2023/10/25 02:12:02;;;;;;;6.57;3.20;;;;;;;;;;5032174;28;20199;-74
2023/10/25 02:14:29;;;;;;;12.50;3.20;;;;;;;;;;5028604;28;20218;-76
2023/10/25 02:16:57;;;;;;;3.63;2.90;;;;;;;;;;5027810;28;20203;-73
2023/10/25 02:19:24;;;;;;;24.73;3.77;;;;;;;;;;5033344;28;20234;-76
2023/10/25 02:21:51;;;;;;;9.63;3.23;;;;;;;;;;5031745;28;20241;-74
2023/10/25 02:24:19;;;;;;;5.40;3.47;;;;;;;;;;5025391;28;20667;-76
2023/10/25 02:26:47;;;;;;;22.30;3.40;;;;;;;;;;5031595;28;20218;-74
2023/10/25 02:29:14;;;;;;;5.30;3.30;;;;;;;;;;5031784;28;20686;-73
2023/10/25 02:31:41;;;;;;;3.60;3.40;;;;;;;;;;5032009;28;20368;-75
2023/10/25 02:34:09;;;;;;;10.30;3.70;;;;;;;;;;5025827;28;20226;-75
2023/10/25 02:36:36;;;;;;;8.30;3.50;;;;;;;;;;5015588;28;20210;-75
2023/10/25 02:39:04;;;;;;;5.80;3.90;;;;;;;;;;5015158;28;20211;-75
2023/10/25 02:41:31;;;;;;;4.80;3.93;;;;;;;;;;5012798;28;20234;-75
2023/10/25 02:43:58;;;;;;;4.63;3.50;;;;;;;;;;5046632;28;20351;-74
2023/10/25 02:46:26;;;;;;;17.63;4.20;;;;;;;;;;5028008;28;20206;-75
2023/10/25 02:48:53;;;;;;;14.53;4.20;;;;;;;;;;5033591;28;20307;-75
2023/10/25 02:51:21;;;;;;;11.13;4.57;;;;;;;;;;5033693;28;20234;-75
2023/10/25 02:53:54;;;;;;;5.83;4.90;;;;;;;;;;5044491;28;20194;-75
2023/10/25 02:56:21;;;;;;;5.67;4.37;;;;;;;;;;5035483;28;20218;-76
2023/10/25 02:58:48;;;;;;;8.23;4.90;;;;;;;;;;5016055;28;20210;-75
2023/10/25 03:01:23;;;;;;;9.17;5.70;;;;;;;;;;5033716;28;20285;-76
2023/10/25 03:03:51;;;;;;;9.17;6.80;;;;;;;;;;5009931;28;20237;-77
2023/10/25 03:06:19;;;;;;;6.60;6.00;;;;;;;;;;5015820;28;20280;-76
2023/10/25 03:08:46;;;;;;;6.33;5.83;;;;;;;;;;5021920;28;20258;-77
2023/10/25 03:11:13;;;;;;;8.60;6.00;;;;;;;;;;5025850;28;20219;-75
2023/10/25 03:13:41;;;;;;;6.90;6.20;;;;;;;;;;5022206;28;20208;-74
2023/10/25 03:16:17;;;;;;;7.13;6.43;;;;;;;;;;5017501;28;20214;-75
2023/10/25 03:18:44;;;;;;;13.37;5.70;;;;;;;;;;5028163;28;20206;-74
2023/10/25 03:21:12;;;;;;;18.10;7.10;;;;;;;;;;5016908;28;20645;-74
2023/10/25 03:23:40;;;;;;;17.03;8.03;;;;;;;;;;5022425;28;20199;-74
2023/10/25 03:26:08;;;;;;;12.33;8.13;;;;;;;;;;5028780;28;20207;-75
2023/10/25 03:28:36;;;;;;;11.03;8.13;;;;;;;;;;5033317;28;20305;-74
2023/10/25 03:31:07;;;;;;;8.37;7.57;;;;;;;;;;5028639;28;20219;-74
2023/10/25 03:33:36;;;;;;;14.77;8.43;;;;;;;;;;5027755;28;20207;-75
2023/10/25 03:36:04;;;;;;;11.67;8.47;;;;;;;;;;5028783;28;20209;-75
2023/10/25 03:38:34;;;;;;;9.30;8.30;;;;;;;;;;5026333;28;20204;-74
2023/10/25 03:41:03;;;;;;;15.20;11.37;;;;;;;;;;5031731;28;20226;-74
2023/10/25 03:43:31;;;;;;;14.03;10.43;;;;;;;;;;5028284;28;20210;-76
2023/10/25 03:46:05;;;;;;;11.40;9.93;;;;;;;;;;5027967;28;20210;-76
2023/10/25 03:48:33;;;;;;;14.20;10.40;;;;;;;;;;5037253;28;20220;-75
2023/10/25 03:51:04;;;;;;;12.87;10.93;;;;;;;;;;5031560;28;20249;-76
2023/10/25 03:53:35;;;;;;;14.83;12.33;;;;;;;;;;5011142;28;20211;-76
2023/10/25 03:56:03;;;;;;;21.50;18.23;;;;;;;;;;5035660;28;20199;-76
2023/10/25 03:58:30;;;;;;;15.87;13.90;;;;;;;;;;5031215;28;20210;-76
2023/10/25 04:00:58;;;;;;;16.83;14.57;;;;;;;;;;5016296;28;20770;-75
2023/10/25 04:03:27;;;;;;;17.60;15.70;;;;;;;;;;5027608;28;20294;-75
2023/10/25 04:05:54;;;;;;;15.20;12.10;;;;;;;;;;5026539;28;20276;-76
2023/10/25 04:08:23;;;;;;;14.03;12.43;;;;;;;;;;5005116;28;20222;-75
2023/10/25 04:10:53;;;;;;;13.17;11.00;;;;;;;;;;5029322;28;20254;-75
2023/10/25 04:13:21;;;;;;;11.80;10.50;;;;;;;;;;5026404;28;20202;-76
2023/10/25 04:15:56;;;;;;;11.17;9.67;;;;;;;;;;5023924;28;20202;-75
2023/10/25 04:18:24;;;;;;;12.57;10.37;;;;;;;;;;5019342;28;20202;-75
2023/10/25 04:20:52;;;;;;;13.93;11.93;;;;;;;;;;5014667;28;20658;-72
2023/10/25 04:23:19;;;;;;;12.80;10.73;;;;;;;;;;5020442;28;20206;-74
2023/10/25 04:25:47;;;;;;;12.43;10.80;;;;;;;;;;5021164;28;20218;-74
2023/10/25 04:28:14;;;;;;;11.80;9.57;;;;;;;;;;5013769;28;20210;-73
2023/10/25 04:30:42;;;;;;;12.93;10.47;;;;;;;;;;5007345;28;20320;-74
2023/10/25 04:33:10;;;;;;;14.33;11.20;;;;;;;;;;5016845;28;20283;-75
2023/10/25 04:35:37;;;;;;;13.73;10.70;;;;;;;;;;5024475;28;20209;-73
2023/10/25 04:38:04;;;;;;;12.33;10.30;;;;;;;;;;5024826;28;20671;-75
2023/10/25 04:40:32;;;;;;;11.17;9.63;;;;;;;;;;5013495;28;20227;-74
2023/10/25 04:43:00;;;;;;;13.43;10.77;;;;;;;;;;5024647;28;20643;-76
2023/10/25 04:45:29;;;;;;;16.00;11.40;;;;;;;;;;5018230;28;20613;-73
2023/10/25 04:47:59;;;;;;;16.40;13.33;;;;;;;;;;5015316;28;20206;-75
2023/10/25 04:50:32;;;;;;;13.93;10.10;;;;;;;;;;5011691;28;20292;-73
2023/10/25 04:53:00;;;;;;;10.47;9.37;;;;;;;;;;5015214;28;20310;-73
2023/10/25 04:55:29;;;;;;;13.07;10.03;;;;;;;;;;5014365;28;20206;-76
2023/10/25 04:57:56;;;;;;;9.90;8.87;;;;;;;;;;5019953;28;20210;-75
2023/10/25 05:00:24;;;;;;;9.73;8.73;;;;;;;;;;5016738;28;20227;-73
2023/10/25 05:02:51;;;;;;;10.27;9.23;;;;;;;;;;5022565;28;20217;-75
2023/10/25 05:05:19;;;;;;;11.33;9.70;;;;;;;;;;5021740;28;20306;-74
2023/10/25 05:07:46;;;;;;;11.03;9.83;;;;;;;;;;5023814;28;20211;-73
2023/10/25 05:10:14;;;;;;;11.10;10.00;;;;;;;;;;5024497;28;20227;-74
2023/10/25 05:12:42;;;;;;;11.53;10.37;;;;;;;;;;5027148;28;20199;-77
2023/10/25 05:15:10;;;;;;;10.67;9.60;;;;;;;;;;5006915;28;20299;-73
2023/10/25 05:17:38;;;;;;;14.33;11.63;;;;;;;;;;5018550;28;20270;-76
2023/10/25 05:20:09;;;;;;;12.57;10.77;;;;;;;;;;4998259;28;20223;-74
2023/10/25 05:22:38;;;;;;;11.50;10.30;;;;;;;;;;5017512;28;20210;-73
2023/10/25 05:25:06;;;;;;;14.77;11.47;;;;;;;;;;5020223;28;20294;-76
2023/10/25 05:27:34;;;;;;;12.90;11.07;;;;;;;;;;5031251;28;20210;-75
2023/10/25 05:30:05;;;;;;;14.53;10.77;;;;;;;;;;5029651;28;20261;-74
2023/10/25 05:32:33;;;;;;;13.10;11.60;;;;;;;;;;5023305;28;20198;-76
2023/10/25 05:35:01;;;;;;;12.13;10.33;;;;;;;;;;5026331;28;20226;-74
2023/10/25 05:37:29;;;;;;;13.17;10.80;;;;;;;;;;5028175;28;20221;-74
2023/10/25 05:39:57;;;;;;;13.57;11.43;;;;;;;;;;5024037;28;20318;-75
2023/10/25 05:42:25;;;;;;;14.13;11.30;;;;;;;;;;5021365;28;20206;-75
2023/10/25 05:44:54;;;;;;;16.20;12.00;;;;;;;;;;5016852;28;20254;-75
2023/10/25 05:47:22;;;;;;;17.13;12.20;;;;;;;;;;5016279;28;20225;-74
2023/10/25 05:49:50;;;;;;;11.33;10.13;;;;;;;;;;5022195;28;20249;-75
2023/10/25 05:52:17;;;;;;;11.67;10.40;;;;;;;;;;5026275;28;20286;-75
2023/10/25 05:54:45;;;;;;;11.53;10.33;;;;;;;;;;5018219;28;20211;-74
2023/10/25 05:57:13;;;;;;;12.00;10.77;;;;;;;;;;5020219;28;20614;-75
2023/10/25 05:59:43;;;;;;;10.40;9.13;;;;;;;;;;5024576;28;20211;-74
2023/10/25 06:02:11;;;;;;;12.10;9.67;;;;;;;;;;5023786;28;20720;-74
2023/10/25 06:04:39;;;;;;;11.53;9.77;;;;;;;;;;5026568;28;20238;-75
2023/10/25 06:07:07;;;;;;;10.97;9.87;;;;;;;;;;5018821;28;20253;-76
2023/10/25 06:09:35;;;;;;;10.90;9.77;;;;;;;;;;5021287;28;20223;-75
2023/10/25 06:12:03;;;;;;;12.80;10.47;;;;;;;;;;5026279;28;20214;-75
2023/10/25 06:14:31;;;;;;;11.83;10.13;;;;;;;;;;5023747;28;20203;-76
2023/10/25 06:16:59;;;;;;;11.27;10.07;;;;;;;;;;5016055;28;20211;-75
2023/10/25 06:19:27;;;;;;;11.97;10.07;;;;;;;;;;5018593;28;20257;-76
2023/10/25 06:21:55;;;;;;;10.93;9.63;;;;;;;;;;5018658;28;20233;-74
2023/10/25 06:24:22;;;;;;;13.00;10.23;;;;;;;;;;5036241;28;20204;-75
2023/10/25 06:26:49;;;;;;;11.87;10.37;;;;;;;;;;5033115;28;20576;-75
2023/10/25 06:29:17;;;;;;;11.77;10.47;;;;;;;;;;5031660;28;20484;-75
2023/10/25 06:31:50;;;;;;;11.17;10.03;;;;;;;;;;5033272;28;20233;-75
2023/10/25 06:34:21;;;;;;;10.70;9.60;;;;;;;;;;5045333;28;20202;-74
2023/10/25 06:36:49;;;;;;;12.53;10.03;;;;;;;;;;5034360;28;20230;-74
2023/10/25 06:39:16;;;;;;;10.93;9.83;;;;;;;;;;5034046;28;20217;-74
2023/10/25 06:41:44;;;;;;;11.73;10.10;;;;;;;;;;5030473;28;20253;-74
2023/10/25 06:44:11;;;;;;;12.03;10.17;;;;;;;;;;5011633;28;20213;-74
2023/10/25 06:46:40;;;;;;;10.70;9.60;;;;;;;;;;5020599;28;20206;-74
2023/10/25 06:49:12;;;;;;;10.17;9.17;;;;;;;;;;5033860;28;20581;-75
2023/10/25 06:51:39;;;;;;;9.60;8.60;;;;;;;;;;5023601;28;20242;-75
2023/10/25 06:54:07;;;;;;;9.87;8.93;;;;;;;;;;5041998;28;20577;-76
2023/10/25 06:56:37;;;;;;;9.83;8.87;;;;;;;;;;5037505;28;20639;-75
2023/10/25 06:59:04;;;;;;;12.00;10.53;;;;;;;;;;5032045;28;20214;-73
2023/10/25 07:01:32;;;;;;;10.40;9.33;;;;;;;;;;5033316;28;20268;-76
2023/10/25 07:04:00;;;;;;;10.97;9.37;;;;;;;;;;5031864;28;20206;-75
2023/10/25 07:06:27;;;;;;;10.57;9.57;;;;;;;;;;5018632;28;20212;-75
2023/10/25 07:08:55;;;;;;;10.13;9.13;;;;;;;;;;5031522;28;20218;-74
2023/10/25 07:11:22;;;;;;;9.13;8.23;;;;;;;;;;5029307;28;20726;-74
2023/10/25 07:13:51;;;;;;;9.87;8.97;;;;;;;;;;5033210;28;20257;-74
2023/10/25 07:16:19;;;;;;;10.80;9.70;;;;;;;;;;5022187;28;20206;-75
2023/10/25 07:18:47;;;;;;;10.77;9.43;;;;;;;;;;5033463;28;20222;-75
2023/10/25 07:21:15;;;;;;;24.50;16.07;;;;;;;;;;5021593;28;20256;-74
2023/10/25 07:23:42;;;;;;;11.53;9.77;;;;;;;;;;5032676;28;20207;-74
2023/10/25 07:26:10;;;;;;;11.93;10.30;;;;;;;;;;5020739;28;20279;-75
2023/10/25 07:28:37;;;;;;;11.43;10.23;;;;;;;;;;4993001;28;20218;-76
2023/10/25 07:31:04;;;;;;;11.63;10.03;;;;;;;;;;5023108;28;20237;-76
2023/10/25 07:33:32;;;;;;;14.73;10.70;;;;;;;;;;5004530;28;20643;-76
2023/10/25 07:35:59;;;;;;;11.07;9.33;;;;;;;;;;5018660;28;20714;-75
2023/10/25 07:38:26;;;;;;;11.63;9.67;;;;;;;;;;5026648;28;20206;-75
2023/10/25 07:40:53;;;;;;;10.90;9.70;;;;;;;;;;5020065;28;20242;-77
2023/10/25 07:43:21;;;;;;;11.63;9.83;;;;;;;;;;5008019;28;20274;-76
2023/10/25 07:45:48;;;;;;;10.07;9.00;;;;;;;;;;5007715;28;20211;-76
2023/10/25 07:48:16;;;;;;;9.47;8.47;;;;;;;;;;5007413;28;20293;-76
2023/10/25 07:50:44;;;;;;;10.20;8.83;;;;;;;;;;5018630;28;20277;-75
2023/10/25 07:53:11;;;;;;;10.80;9.47;;;;;;;;;;5020752;28;20297;-76
2023/10/25 07:55:42;;;;;;;11.30;9.13;;;;;;;;;;5000177;28;20265;-77
2023/10/25 07:58:13;;;;;;;11.87;9.30;;;;;;;;;;5016435;28;20203;-75
2023/10/25 08:00:53;;;;;;;9.37;8.13;;;;;;;;;;5014555;28;20761;-76
2023/10/25 08:03:20;;;;;;;8.97;7.77;;;;;;;;;;5009830;28;20230;-75
2023/10/25 08:05:48;;;;;;;12.73;9.77;;;;;;;;;;5015305;28;20214;-77
2023/10/25 08:08:17;;;;;;;10.07;8.97;;;;;;;;;;5017364;28;20214;-77
2023/10/25 08:10:44;;;;;;;7.33;6.63;;;;;;;;;;5017094;28;20234;-76
2023/10/25 08:13:12;;;;;;;7.53;6.83;;;;;;;;;;5015534;28;20203;-77
2023/10/25 08:15:39;;;;;;;7.73;6.90;;;;;;;;;;5027297;28;20203;-77
2023/10/25 08:18:06;;;;;;;6.83;6.23;;;;;;;;;;5018848;28;20648;-75
2023/10/25 08:20:37;;;;;;;6.40;5.87;;;;;;;;;;5033101;28;20231;-75
2023/10/25 08:23:05;;;;;;;9.43;7.33;;;;;;;;;;5021677;28;20827;-77
2023/10/25 08:25:35;;;;;;;7.27;6.47;;;;;;;;;;5031005;28;20659;-78
2023/10/25 08:28:02;;;;;;;11.80;9.57;;;;;;;;;;5023806;28;20294;-76
2023/10/25 08:30:30;;;;;;;13.23;10.07;;;;;;;;;;5016738;28;20226;-76
2023/10/25 08:32:57;;;;;;;15.87;12.40;;;;;;;;;;5016498;28;20548;-75
2023/10/25 08:35:25;;;;;;;19.47;14.60;;;;;;;;;;5018815;28;20211;-77
2023/10/25 08:37:52;;;;;;;12.70;10.27;;;;;;;;;;5016937;28;20203;-75
2023/10/25 08:40:20;;;;;;;6.73;6.13;;;;;;;;;;5012700;28;20227;-78
2023/10/25 08:42:47;;;;;;;6.60;6.03;;;;;;;;;;5018220;28;20738;-77
2023/10/25 08:45:14;;;;;;;6.60;6.00;;;;;;;;;;5023409;28;20214;-75
2023/10/25 08:47:42;;;;;;;7.50;6.77;;;;;;;;;;5020605;28;20207;-77
2023/10/25 08:50:10;;;;;;;7.47;6.77;;;;;;;;;;5020311;28;20254;-74
2023/10/25 08:52:37;;;;;;;6.73;6.23;;;;;;;;;;5023277;28;20198;-76
2023/10/25 08:55:09;;;;;;;5.90;5.40;;;;;;;;;;5026093;28;20203;-76
2023/10/25 08:57:39;;;;;;;7.20;6.50;;;;;;;;;;5026364;28;20207;-75
2023/10/25 09:00:07;;;;;;;6.53;6.03;;;;;;;;;;5014419;28;20226;-78
2023/10/25 09:02:38;;;;;;;7.07;6.43;;;;;;;;;;5022320;28;20218;-75
2023/10/25 09:05:06;;;;;;;6.77;6.13;;;;;;;;;;5028086;28;20222;-75
2023/10/25 09:07:37;;;;;;;6.40;5.80;;;;;;;;;;5034750;28;20622;-75
2023/10/25 09:10:17;;;;;;;5.97;5.47;;;;;;;;;;5030537;28;20235;-75
2023/10/25 09:12:46;;;;;;;5.57;5.07;;;;;;;;;;5034972;28;20208;-76
2023/10/25 09:15:28;;;;;;;5.50;5.10;;;;;;;;;;5033482;28;20227;-74
2023/10/25 09:17:57;;;;;;;5.27;4.73;;;;;;;;;;5031350;28;20265;-76
2023/10/25 09:20:28;;;;;;;4.47;4.17;;;;;;;;;;5030813;28;20227;-77
2023/10/25 09:23:11;;;;;;;4.80;4.40;;;;;;;;;;5033752;28;20254;-77
2023/10/25 09:25:40;;;;;;;4.70;4.30;;;;;;;;;;5023762;28;20203;-76
2023/10/25 09:28:17;;;;;;;5.33;4.83;;;;;;;;;;5033562;28;20212;-76
2023/10/25 09:30:44;;;;;;;5.57;5.07;;;;;;;;;;5026708;28;20230;-76
2023/10/25 09:33:12;;;;;;;5.85;5.07;;;;;;;;;;5036726;28;20207;-78
2023/10/25 09:35:41;;;;;;;4.93;4.37;;;;;;;;;;5034372;28;20202;-78
2023/10/25 09:38:08;;;;;;;4.53;4.10;;;;;;;;;;5034761;28;20221;-75
2023/10/25 09:40:38;;;;;;;4.40;4.00;;;;;;;;;;5025830;28;20235;-76
2023/10/25 09:43:09;;;;;;;5.13;4.63;;;;;;;;;;5021360;28;20282;-78
2023/10/25 09:45:36;;;;;;;4.67;4.30;;;;;;;;;;5034380;28;20576;-78
2023/10/25 09:48:05;;;;;;;4.83;4.43;;;;;;;;;;5022125;28;20207;-78
2023/10/25 09:50:34;;;;;;;5.20;4.80;;;;;;;;;;5019295;28;20296;-74
2023/10/25 09:53:12;;;;;;;4.50;4.07;;;;;;;;;;5018671;28;20207;-75
2023/10/25 09:55:41;;;;;;;4.90;4.50;;;;;;;;;;5020632;28;20203;-76
2023/10/25 09:58:11;;;;;;;5.30;4.80;;;;;;;;;;5030299;28;20282;-75
2023/10/25 10:00:38;;;;;;;4.60;4.20;;;;;;;;;;5019975;28;20234;-77
2023/10/25 10:03:21;;;;;;;4.43;4.03;;;;;;;;;;5016950;28;20778;-76
2023/10/25 10:05:48;;;;;;;4.30;3.90;;;;;;;;;;5022449;28;20218;-76
2023/10/25 10:08:17;;;;;;;3.15;2.95;;;;;;;;;;5021753;28;20270;-76
2023/10/25 10:10:44;;;;;;;3.17;2.97;;;;;;;;;;5001863;28;20238;-77
2023/10/25 10:13:20;;;;;;;2.88;2.67;;;;;;;;;;5030996;28;20231;-76
2023/10/25 10:16:04;;;;;;;3.70;3.40;;;;;;;;;;5035755;28;20206;-77
2023/10/25 10:18:32;;;;;;;4.00;3.70;;;;;;;;;;5021566;28;20210;-76
2023/10/25 10:21:04;;;;;;;3.85;3.55;;;;;;;;;;5031822;28;20313;-75
2023/10/25 10:23:40;;;;;;;3.60;3.30;;;;;;;;;;5023532;28;20210;-75
2023/10/25 10:26:08;;;;;;;5.13;3.30;;;;;;;;;;5021201;28;20206;-74
2023/10/25 10:28:41;;;;;;;4.57;4.18;;;;;;;;;;5031605;28;20257;-74
2023/10/25 10:31:10;;;;;;;4.75;4.03;;;;;;;;;;5022338;28;20316;-74
2023/10/25 10:33:47;;;;;;;4.07;3.78;;;;;;;;;;5026886;28;20252;-74
2023/10/25 10:36:24;;;;;;;3.63;3.33;;;;;;;;;;5028092;28;20234;-74
2023/10/25 10:39:13;;;;;;;4.15;3.80;;;;;;;;;;5020451;28;20253;-75
2023/10/25 10:41:41;;;;;;;3.92;3.58;;;;;;;;;;5020610;28;21015;-73
2023/10/25 10:44:09;;;;;;;3.40;2.95;;;;;;;;;;5014111;28;20218;-74
2023/10/25 10:46:41;;;;;;;3.10;2.90;;;;;;;;;;5018229;28;20289;-75
2023/10/25 10:49:13;;;;;;;3.42;3.22;;;;;;;;;;5017403;28;20203;-73
2023/10/25 10:51:40;;;;;;;5.53;3.72;;;;;;;;;;5013151;28;20234;-75
2023/10/25 10:54:08;;;;;;;4.32;3.92;;;;;;;;;;5012474;28;20203;-73
2023/10/25 10:56:35;;;;;;;3.78;3.40;;;;;;;;;;5009304;28;20214;-73
2023/10/25 10:59:02;;;;;;;3.78;3.47;;;;;;;;;;5023078;28;20199;-73
2023/10/25 11:01:30;;;;;;;3.70;3.40;;;;;;;;;;5023220;28;20231;-74
2023/10/25 11:03:58;;;;;;;5.47;2.92;;;;;;;;;;5020158;28;20210;-76
2023/10/25 11:06:26;;;;;;;2.78;2.58;;;;;;;;;;5021199;28;20218;-74
2023/10/25 11:08:54;;;;;;;3.13;2.83;;;;;;;;;;5016260;28;20210;-75
2023/10/25 11:11:21;;;;;;;3.42;2.05;;;;;;;;;;5022914;28;20599;-75
2023/10/25 11:13:52;;;;;;;2.83;2.25;;;;;;;;;;5027000;28;20681;-75
2023/10/25 11:16:20;;;;;;;2.65;2.50;;;;;;;;;;5024682;28;20682;-74
2023/10/25 11:18:47;;;;;;;2.47;2.28;;;;;;;;;;5016540;28;20298;-73
2023/10/25 11:21:14;;;;;;;1.88;1.77;;;;;;;;;;5016211;28;20292;-75
2023/10/25 11:23:43;;;;;;;2.60;2.10;;;;;;;;;;5021359;28;20203;-75
2023/10/25 11:26:10;;;;;;;2.15;1.90;;;;;;;;;;5020219;28;20577;-75
2023/10/25 11:28:41;;;;;;;1.70;1.60;;;;;;;;;;5027049;28;20647;-76
2023/10/25 11:31:08;;;;;;;1.67;1.58;;;;;;;;;;5023158;28;20241;-74
2023/10/25 11:33:44;;;;;;;2.13;1.42;;;;;;;;;;5018099;28;20207;-75
2023/10/25 11:36:11;;;;;;;1.20;1.20;;;;;;;;;;5019190;28;20230;-76
2023/10/25 11:38:44;;;;;;;1.33;1.23;;;;;;;;;;5003740;28;20761;-73
2023/10/25 11:41:11;;;;;;;0.90;0.90;;;;;;;;;;5017446;28;20281;-74
2023/10/25 11:43:39;;;;;;;2.35;2.15;;;;;;;;;;5025244;28;20229;-73
2023/10/25 11:46:06;;;;;;;1.00;1.00;;;;;;;;;;5032155;28;20218;-74
2023/10/25 11:48:35;;;;;;;1.20;1.20;;;;;;;;;;5027203;28;20583;-75
2023/10/25 11:51:03;;;;;;;1.92;1.60;;;;;;;;;;5032364;28;20245;-74
2023/10/25 11:53:30;;;;;;;1.25;1.15;;;;;;;;;;5017812;28;20211;-73
2023/10/25 11:55:58;;;;;;;2.88;1.00;;;;;;;;;;5044980;28;20208;-74
2023/10/25 11:58:29;;;;;;;1.75;0.90;;;;;;;;;;5034697;28;20229;-75
2023/10/25 12:00:56;;;;;;;0.70;0.70;;;;;;;;;;5030347;28;20226;-74
2023/10/25 12:03:23;;;;;;;1.90;1.05;;;;;;;;;;5026504;28;20218;-75
2023/10/25 12:05:51;;;;;;;0.70;0.70;;;;;;;;;;5020784;28;20261;-74
2023/10/25 12:08:18;;;;;;;2.03;0.70;;;;;;;;;;5026660;28;20214;-73
2023/10/25 12:10:45;;;;;;;0.70;0.60;;;;;;;;;;5036969;28;20245;-75
2023/10/25 12:13:13;;;;;;;0.70;0.70;;;;;;;;;;5022167;28;20203;-73
2023/10/25 12:15:40;;;;;;;0.70;0.70;;;;;;;;;;5022674;28;20199;-73
2023/10/25 12:18:07;;;;;;;0.77;0.77;;;;;;;;;;5016610;28;20203;-72
2023/10/25 12:20:35;;;;;;;1.80;0.82;;;;;;;;;;5014483;28;20318;-75
2023/10/25 12:23:02;;;;;;;0.73;0.73;;;;;;;;;;5022375;28;20212;-76
2023/10/25 12:25:30;;;;;;;1.50;0.95;;;;;;;;;;5014141;28;20203;-76
2023/10/25 12:27:57;;;;;;;1.00;1.00;;;;;;;;;;5020332;28;20203;-76
2023/10/25 12:30:24;;;;;;;1.95;1.00;;;;;;;;;;5012324;28;20721;-73
2023/10/25 12:32:53;;;;;;;1.25;1.17;;;;;;;;;;4998492;28;20199;-74
2023/10/25 12:35:21;;;;;;;1.60;1.00;;;;;;;;;;5021697;28;20230;-75
2023/10/25 12:37:48;;;;;;;1.35;1.20;;;;;;;;;;5022737;28;20601;-73
2023/10/25 12:40:16;;;;;;;1.88;1.20;;;;;;;;;;5005673;28;20243;-74
2023/10/25 12:42:44;;;;;;;1.45;1.20;;;;;;;;;;5001610;28;20211;-76
2023/10/25 12:45:11;;;;;;;2.70;1.20;;;;;;;;;;5025766;28;20203;-73
2023/10/25 12:47:38;;;;;;;1.33;1.23;;;;;;;;;;5018040;28;20207;-75
2023/10/25 12:50:06;;;;;;;2.30;1.27;;;;;;;;;;5023566;28;20250;-76
2023/10/25 12:52:36;;;;;;;1.00;1.00;;;;;;;;;;5010875;28;20235;-74
2023/10/25 12:55:05;;;;;;;1.27;1.20;;;;;;;;;;5011894;28;20222;-76
2023/10/25 12:57:32;;;;;;;1.40;1.30;;;;;;;;;;5010736;28;20686;-75
2023/10/25 12:59:59;;;;;;;1.88;1.27;;;;;;;;;;5010644;28;20309;-76
2023/10/25 13:02:27;;;;;;;1.30;1.20;;;;;;;;;;5011696;28;20262;-75
2023/10/25 13:04:54;;;;;;;1.58;1.48;;;;;;;;;;5018344;28;20257;-73
2023/10/25 13:07:22;;;;;;;1.88;1.20;;;;;;;;;;5026281;28;20199;-72
2023/10/25 13:09:49;;;;;;;1.50;1.40;;;;;;;;;;5028519;28;20231;-73
2023/10/25 13:12:17;;;;;;;1.77;1.20;;;;;;;;;;5028186;28;20215;-75
2023/10/25 13:14:44;;;;;;;1.25;1.25;;;;;;;;;;5038107;28;20202;-74
2023/10/25 13:17:12;;;;;;;1.08;1.00;;;;;;;;;;5021201;28;20261;-73
2023/10/25 13:19:46;;;;;;;1.50;1.40;;;;;;;;;;5034939;28;20256;-73
2023/10/25 13:22:14;;;;;;;2.00;1.02;;;;;;;;;;5041603;28;20272;-73
2023/10/25 13:24:42;;;;;;;1.40;1.38;;;;;;;;;;5030782;28;20207;-75
2023/10/25 13:27:10;;;;;;;1.75;1.65;;;;;;;;;;5032030;28;20748;-73
2023/10/25 13:29:38;;;;;;;1.52;1.42;;;;;;;;;;5033216;28;20306;-73
2023/10/25 13:32:07;;;;;;;1.70;1.50;;;;;;;;;;5030570;28;20272;-74
2023/10/25 13:34:34;;;;;;;2.35;1.40;;;;;;;;;;5044549;28;20202;-75
2023/10/25 13:37:01;;;;;;;1.60;1.50;;;;;;;;;;5033559;28;20812;-75
2023/10/25 13:39:29;;;;;;;1.30;1.20;;;;;;;;;;5013568;28;20202;-76
2023/10/25 13:41:56;;;;;;;1.73;1.40;;;;;;;;;;5033675;28;20206;-75
2023/10/25 13:44:24;;;;;;;5.03;1.60;;;;;;;;;;5020354;28;20207;-78
2023/10/25 13:46:51;;;;;;;1.75;1.50;;;;;;;;;;5022869;28;20683;-78
2023/10/25 13:49:19;;;;;;;1.77;1.50;;;;;;;;;;5013631;28;20211;-76
2023/10/25 13:51:46;;;;;;;1.80;1.70;;;;;;;;;;5032332;28;20230;-77
2023/10/25 13:54:14;;;;;;;1.92;1.75;;;;;;;;;;5031702;28;20659;-74
2023/10/25 13:56:42;;;;;;;4.13;1.92;;;;;;;;;;5029614;28;20617;-75
2023/10/25 13:59:09;;;;;;;2.40;2.13;;;;;;;;;;5012840;28;20207;-73
2023/10/25 14:01:36;;;;;;;3.63;1.73;;;;;;;;;;5025687;28;20233;-74
2023/10/25 14:04:04;;;;;;;3.10;2.05;;;;;;;;;;5028275;28;20207;-75
2023/10/25 14:06:33;;;;;;;2.65;2.10;;;;;;;;;;5032431;28;20221;-75
2023/10/25 14:09:01;;;;;;;2.58;1.88;;;;;;;;;;5049935;28;20210;-75
2023/10/25 14:11:28;;;;;;;4.35;2.20;;;;;;;;;;5052267;28;20707;-76
2023/10/25 14:13:57;;;;;;;4.10;2.20;;;;;;;;;;5054665;28;20198;-75
2023/10/25 14:16:25;;;;;;;2.50;2.30;;;;;;;;;;5054651;28;20206;-74
2023/10/25 14:18:52;;;;;;;2.78;2.40;;;;;;;;;;5054578;28;20202;-75
2023/10/25 14:21:23;;;;;;;2.42;2.25;;;;;;;;;;5054638;28;20666;-74
2023/10/25 14:23:55;;;;;;;2.47;2.28;;;;;;;;;;5036702;28;20194;-76
2023/10/25 14:26:23;;;;;;;2.40;2.28;;;;;;;;;;5035682;28;20218;-75
2023/10/25 14:28:51;;;;;;;4.28;2.20;;;;;;;;;;5034534;28;20560;-73
2023/10/25 14:31:19;;;;;;;3.38;2.25;;;;;;;;;;5034316;28;20230;-75
2023/10/25 14:33:46;;;;;;;2.97;2.20;;;;;;;;;;5034097;28;20247;-74
2023/10/25 14:36:14;;;;;;;2.58;2.30;;;;;;;;;;5017045;28;20213;-76
2023/10/25 14:38:42;;;;;;;2.17;2.00;;;;;;;;;;5016901;28;20866;-75
2023/10/25 14:41:10;;;;;;;2.08;1.98;;;;;;;;;;5034513;28;20231;-76
2023/10/25 14:43:39;;;;;;;2.75;2.00;;;;;;;;;;5034218;28;20729;-76